INFORMACIÓN METAR y TAF
METAR FOR GCLP
ADDS - METARS form results

(0407 UTC 05 July 2020)
Data provider http://aviationweather.gov/metar/data/
 
METAR text: GCLP 050400Z 01025KT 9999 SCT020 21/16 Q1015 NOSIG
Conditions at: GCLP (LAS PALMAS/GANDO, ES) observed 0400 UTC 05 July 2020
Temperature: 21.0°C (70°F)
Dewpoint: 16.0°C (61°F) [RH = 73%]
Pressure (altimeter): 29.97 inches Hg (1015.0 mb)
Winds: from the N (10 degrees) at 29 MPH (25 knots; 12.9 m/s)
Visibility: 6 or more miles (10+ km)
Ceiling: at least 12,000 feet AGL
Clouds: scattered clouds at 2000 feet AGL
Weather: no significant weather observed at this time

METAR text: GCLP 050330Z 01024KT 9999 SCT020 21/16 Q1015 NOSIG
Conditions at: GCLP (LAS PALMAS/GANDO, ES) observed 0330 UTC 05 July 2020
Temperature: 21.0°C (70°F)
Dewpoint: 16.0°C (61°F) [RH = 73%]
Pressure (altimeter): 29.97 inches Hg (1015.0 mb)
Winds: from the N (10 degrees) at 28 MPH (24 knots; 12.3 m/s)
Visibility: 6 or more miles (10+ km)
Ceiling: at least 12,000 feet AGL
Clouds: scattered clouds at 2000 feet AGL
Weather: no significant weather observed at this time

Forecast for: GCLP (LAS PALMAS/GANDO, ES)
Text: TAF GCLP 050200Z 0503/0603 36023KT 9999 SCT025 TX28/0514Z TN21/0506Z
Forecast period: 0300 UTC 05 July 2020 to 0300 UTC 06 July 2020
Forecast type: FROM: standard forecast or significant change
Winds: from the N (360 degrees) at 26 MPH (23 knots; 11.8 m/s)
Visibility: 6 or more miles 10+ km)
Ceiling: at least 12,000 feet AGL
Clouds: scattered clouds at 2500 feet AGL
Weather: no significant weather forecast for this period
Text: PROB40
Forecast period: 0300 to 0600 UTC 05 July 2020
Forecast type: TEMPORARY: The following changes expected for less than half the time period
Winds: from the N (10 degrees) at 28 MPH (24 knots; 12.3 m/s)
gusting to 39 MPH (34 knots; 17.5 m/s)
Visibility: missing
Ceiling: unknown
Clouds: missing
Weather: no significant weather forecast for this period

 MAPA DE AEROPUERTO

 INFORMACIÓN DE PISTA
Pista 03L Longitud 10171 ft Ancho 148 ft
Elevación 78 ft Umbral desplazado 0 ft Rumbo de pista 22
Pista 21R Longitud 10171 ft Ancho 148 ft
Elevación 33 ft Umbral desplazado 0 ft Rumbo de pista 202
Pista 03R Longitud 10171 ft Ancho 148 ft
Elevación 69 ft Umbral desplazado 0 ft Rumbo de pista 22
Pista 21L Longitud 10171 ft Ancho 148 ft
Elevación 27 ft Umbral desplazado 0 ft Rumbo de pista 202

 FRECUANCIAS DEL AEROPUERTO
Tipo APP Nombre APP Frecuencia 120.9 MHZ
Tipo ATIS Nombre ATIS Frecuencia 118.6 MHZ
Tipo GND Nombre GND Frecuencia 121.7 MHZ
Tipo TWR Nombre TWR Frecuencia 118.3 MHZ

 RADIO AYUDAS DEL AEROPUERTO
Tipo VOR-DME Nombre Gran Canaria Frecuencia 112900 KHZ
Tipo VOR-DME Nombre Gran Canaria Frecuencia 115000 KHZ
Tipo TACAN Nombre Gran Canaria Frecuencia 115600 KHZ
Tipo NDB Nombre Gran Canaria Frecuencia 365 KHZ




Powered by Virtual Airlines Manager